Time;durP1;ratioP1;P1;durP2;ratioP2;P2;SDS_P1;SDS_P2;PMS_P1;PMS_P2;Temp;Humidity;BMP_temperature;BMP_pressure;BME280_temperature;BME280_humidity;BME280_pressure;Samples;Min_cycle;Max_cycle;Signal;HPM_P1;HPM_P2
2023/12/07 00:01:13;;;;;;;6.72;4.47;;;;;;;;;;5045014;28;20287;-83
2023/12/07 00:03:41;;;;;;;4.78;3.20;;;;;;;;;;5041275;28;20216;-84
2023/12/07 00:06:08;;;;;;;4.70;3.38;;;;;;;;;;5046034;28;20642;-84
2023/12/07 00:08:34;;;;;;;3.17;2.53;;;;;;;;;;5049774;28;20642;-83
2023/12/07 00:11:02;;;;;;;4.15;3.35;;;;;;;;;;5049401;28;20232;-83
2023/12/07 00:13:29;;;;;;;4.15;2.72;;;;;;;;;;5049534;28;20338;-84
2023/12/07 00:15:56;;;;;;;3.05;2.05;;;;;;;;;;5048902;28;20204;-83
2023/12/07 00:18:23;;;;;;;3.50;2.67;;;;;;;;;;5049811;28;20322;-83
2023/12/07 00:20:51;;;;;;;3.95;3.15;;;;;;;;;;5048509;28;20681;-83
2023/12/07 00:23:18;;;;;;;3.70;3.03;;;;;;;;;;5049286;28;20203;-83
2023/12/07 00:25:46;;;;;;;4.50;2.78;;;;;;;;;;5049169;28;20216;-84
2023/12/07 00:28:14;;;;;;;4.88;2.63;;;;;;;;;;5048822;28;20207;-82
2023/12/07 00:30:42;;;;;;;4.43;2.63;;;;;;;;;;5049315;28;20203;-83
2023/12/07 00:33:09;;;;;;;4.43;3.08;;;2.00;99.90;;;;;;5049449;28;20580;-83
2023/12/07 00:35:36;;;;;;;7.03;3.72;;;;;;;;;;5049419;28;20285;-83
2023/12/07 00:38:06;;;;;;;4.30;2.95;;;;;;;;;;5047395;28;20224;-83
2023/12/07 00:40:35;;;;;;;5.88;3.05;;;;;;;;;;5048983;28;20650;-83
2023/12/07 00:43:03;;;;;;;3.85;3.55;;;;;;;;;;5049083;28;20199;-84
2023/12/07 00:45:30;;;;;;;2.88;2.58;;;;;;;;;;5049124;28;20239;-84
2023/12/07 00:47:57;;;;;;;3.25;2.58;;;;;;;;;;5049135;28;20204;-85
2023/12/07 00:50:24;;;;;;;4.40;3.28;;;;;;;;;;5049054;28;20290;-83
2023/12/07 00:52:51;;;;;;;4.25;2.97;;;;;;;;;;5050742;28;20200;-84
2023/12/07 00:55:20;;;;;;;6.15;3.75;;;1.90;99.90;;;;;;5049368;28;20205;-84
2023/12/07 00:57:47;;;;;;;8.57;2.70;;;;;;;;;;5049651;28;20237;-84
2023/12/07 01:00:14;;;;;;;3.60;2.70;;;;;;;;;;5049182;28;20228;-83
2023/12/07 01:02:41;;;;;;;5.13;3.13;;;2.00;99.90;;;;;;5044698;28;20283;-84
2023/12/07 01:05:09;;;;;;;2.63;2.42;;;;;;;;;;5048583;28;20292;-84
2023/12/07 01:07:36;;;;;;;3.65;3.33;;;;;;;;;;5048827;28;20204;-84
2023/12/07 01:10:04;;;;;;;3.03;2.67;;;;;;;;;;5047994;28;20568;-82
2023/12/07 01:12:32;;;;;;;3.80;3.15;;;2.00;99.90;;;;;;5048731;28;20284;-82
2023/12/07 01:14:59;;;;;;;3.85;2.63;;;;;;;;;;5048350;28;20275;-82
2023/12/07 01:17:26;;;;;;;4.57;2.45;;;;;;;;;;5048426;28;20238;-82
2023/12/07 01:19:53;;;;;;;3.03;2.72;;;;;;;;;;5046584;28;20205;-82
2023/12/07 01:22:21;;;;;;;2.72;2.47;;;;;;;;;;5048554;28;20209;-82
2023/12/07 01:24:48;;;;;;;3.78;2.97;;;;;;;;;;5047967;28;20218;-82
2023/12/07 01:27:16;;;;;;;5.88;3.90;;;;;;;;;;5048494;28;20206;-83
2023/12/07 01:29:44;;;;;;;5.10;4.00;;;;;;;;;;5048387;28;20749;-81
2023/12/07 01:32:11;;;;;;;2.60;2.00;;;;;;;;;;5048350;28;20208;-81
2023/12/07 01:34:38;;;;;;;3.42;1.80;;;;;;;;;;5048035;28;20287;-82
2023/12/07 01:37:05;;;;;;;7.50;2.85;;;1.80;99.90;;;;;;5047268;28;20192;-81
2023/12/07 01:39:32;;;;;;;4.00;3.80;;;1.40;99.90;;;;;;5048143;28;20207;-81
2023/12/07 01:41:59;;;;;;;5.28;3.33;;;2.00;99.90;;;;;;5048298;28;20703;-82
2023/12/07 01:44:27;;;;;;;12.73;4.25;;;;;;;;;;5048032;28;20556;-81
2023/12/07 01:46:56;;;;;;;2.85;2.33;;;1.70;99.90;;;;;;5047572;28;20200;-81
2023/12/07 01:49:23;;;;;;;3.08;2.72;;;;;;;;;;5047103;28;20302;-82
2023/12/07 01:51:50;;;;;;;1.40;1.30;;;;;;;;;;5048308;28;20210;-81
2023/12/07 01:54:18;;;;;;;3.05;2.75;;;;;;;;;;5050538;28;20201;-81
2023/12/07 01:56:45;;;;;;;2.72;2.03;;;;;;;;;;5047602;28;20689;-82
2023/12/07 01:59:12;;;;;;;2.53;2.33;;;0.20;99.90;;;;;;5047700;28;20675;-83
2023/12/07 02:01:39;;;;;;;3.15;2.35;;;;;;;;;;5047265;28;20283;-82
2023/12/07 02:04:08;;;;;;;4.38;3.42;;;1.50;99.90;;;;;;5042640;28;20771;-82
2023/12/07 02:06:34;;;;;;;3.60;2.35;;;1.60;99.90;;;;;;5047745;28;20220;-82
2023/12/07 02:09:03;;;;;;;6.05;3.25;;;;;;;;;;5047381;28;20571;-82
2023/12/07 02:11:30;;;;;;;2.10;1.67;;;1.60;99.90;;;;;;5047833;28;20242;-82
2023/12/07 02:13:57;;;;;;;3.72;3.03;;;;;;;;;;5047455;28;20204;-82
2023/12/07 02:16:31;;;;;;;6.65;4.82;;;1.50;99.90;;;;;;5047016;28;20581;-83
2023/12/07 02:19:12;;;;;;;1.73;1.60;;;1.50;99.90;;;;;;5046320;28;20314;-83
2023/12/07 02:21:45;;;;;;;3.05;1.98;;;;;;;;;;5046924;28;20589;-81
2023/12/07 02:24:19;;;;;;;2.85;2.63;;;1.50;99.90;;;;;;5046967;28;20204;-82
2023/12/07 02:26:49;;;;;;;4.30;3.60;;;;;;;;;;5045779;28;20695;-82
2023/12/07 02:29:17;;;;;;;4.93;2.63;;;;;;;;;;5046570;28;20291;-81
2023/12/07 02:31:45;;;;;;;8.50;2.78;;;;;;;;;;5046115;28;20236;-82
2023/12/07 02:34:12;;;;;;;2.60;2.40;;;;;;;;;;5046171;28;20193;-82
2023/12/07 02:36:41;;;;;;;3.70;2.30;;;1.50;99.90;;;;;;5047091;28;20287;-82
2023/12/07 02:39:09;;;;;;;5.90;2.88;;;1.40;99.90;;;;;;5046708;28;20302;-82
2023/12/07 02:41:38;;;;;;;14.13;3.47;;;;;;;;;;5046608;28;20714;-82
2023/12/07 02:44:08;;;;;;;4.38;3.20;;;;;;;;;;5044426;28;20292;-82
2023/12/07 02:46:35;;;;;;;4.70;3.42;;;;;;;;;;5046736;28;20632;-82
2023/12/07 02:49:05;;;;;;;12.27;3.42;;;1.20;99.90;;;;;;5046126;28;20262;-82
2023/12/07 02:51:32;;;;;;;5.20;4.07;;;;;;;;;;5042490;28;20246;-82
2023/12/07 02:53:59;;;;;;;4.40;1.83;;;;;;;;;;5048759;28;20280;-82
2023/12/07 02:56:26;;;;;;;4.60;2.60;;;;;;;;;;5046758;28;20210;-82
2023/12/07 02:58:54;;;;;;;3.65;3.30;;;;;;;;;;5046488;28;20228;-82
2023/12/07 03:01:23;;;;;;;3.30;2.55;;;0.90;99.90;;;;;;5046988;28;20231;-81
2023/12/07 03:03:50;;;;;;;2.88;2.22;;;;;;;;;;5042011;28;20211;-82
2023/12/07 03:06:19;;;;;;;4.10;3.22;;;;;;;;;;5046452;28;20197;-81
2023/12/07 03:08:47;;;;;;;3.30;2.90;;;;;;;;;;5045732;28;20576;-80
2023/12/07 03:11:15;;;;;;;3.53;3.08;;;;;;;;;;5046441;28;20238;-83
2023/12/07 03:13:43;;;;;;;5.00;4.45;;;;;;;;;;5045927;28;20208;-82
2023/12/07 03:16:11;;;;;;;5.00;4.50;;;;;;;;;;5045237;28;20204;-82
2023/12/07 03:18:40;;;;;;;4.20;2.75;;;;;;;;;;5043649;28;20858;-82
2023/12/07 03:21:08;;;;;;;4.80;3.40;;;;;;;;;;5044096;28;20196;-83
2023/12/07 03:23:37;;;;;;;6.25;3.53;;;;;;;;;;5044133;28;20576;-83
2023/12/07 03:26:05;;;;;;;1.95;1.85;;;;;;;;;;5044327;28;20204;-82
2023/12/07 03:28:33;;;;;;;5.10;4.40;;;;;;;;;;5044957;28;20216;-82
2023/12/07 03:31:01;;;;;;;6.80;4.30;;;;;;;;;;5045975;28;20196;-83
2023/12/07 03:33:28;;;;;;;3.60;3.30;;;;;;;;;;5045690;28;20200;-83
2023/12/07 03:35:57;;;;;;;2.83;2.60;;;;;;;;;;5045527;28;20605;-83
2023/12/07 03:38:24;;;;;;;2.22;1.98;;;;;;;;;;5046013;28;20227;-83
2023/12/07 03:40:51;;;;;;;4.88;3.05;;;;;;;;;;5045468;28;20313;-83
2023/12/07 03:43:20;;;;;;;3.47;3.17;;;;;;;;;;5045863;28;20658;-81
2023/12/07 03:45:47;;;;;;;2.58;2.38;;;;;;;;;;5045750;28;20318;-82
2023/12/07 03:48:14;;;;;;;5.32;2.65;;;;;;;;;;5045366;28;20299;-81
2023/12/07 03:50:41;;;;;;;4.38;3.10;;;;;;;;;;5045624;28;20287;-82
2023/12/07 03:53:09;;;;;;;3.15;2.85;;;;;;;;;;5048559;28;20250;-81
2023/12/07 03:55:37;;;;;;;3.80;2.65;;;;;;;;;;5049461;28;20286;-81
2023/12/07 03:58:04;;;;;;;5.20;2.50;;;;;;;;;;5045229;28;20250;-81
2023/12/07 04:00:32;;;;;;;5.15;2.90;;;;;;;;;;5045648;28;20208;-81
2023/12/07 04:02:59;;;;;;;3.83;3.53;;;;;;;;;;5044238;28;20429;-81
2023/12/07 04:05:27;;;;;;;3.28;3.05;;;;;;;;;;5045647;28;20303;-81
2023/12/07 04:07:54;;;;;;;4.78;3.78;;;;;;;;;;5045965;28;20223;-82
2023/12/07 04:10:22;;;;;;;3.97;3.33;;;;;;;;;;5045858;28;20211;-82
2023/12/07 04:12:49;;;;;;;6.80;4.38;;;1.00;99.90;;;;;;5045668;28;20318;-80
2023/12/07 04:15:16;;;;;;;9.05;4.05;;;-0.20;99.90;;;;;;5044548;28;20200;-82
2023/12/07 04:17:43;;;;;;;6.18;4.60;;;;;;;;;;5045714;28;20206;-82
2023/12/07 04:20:11;;;;;;;3.95;3.60;;;0.60;99.90;;;;;;5045138;28;20311;-82
2023/12/07 04:22:38;;;;;;;4.75;4.38;;;;;;;;;;5046036;28;20279;-81
2023/12/07 04:25:06;;;;;;;2.10;1.70;;;0.70;99.90;;;;;;5040318;28;20266;-82
2023/12/07 04:27:35;;;;;;;4.30;3.35;;;;;;;;;;5045348;28;20302;-81
2023/12/07 04:30:03;;;;;;;4.70;3.70;;;;;;;;;;5044931;28;20793;-82
2023/12/07 04:32:30;;;;;;;3.58;2.88;;;;;;;;;;5045795;28;20208;-82
2023/12/07 04:34:57;;;;;;;5.18;4.07;;;;;;;;;;5045025;28;20192;-82
2023/12/07 04:37:24;;;;;;;2.63;2.42;;;;;;;;;;5045370;28;20418;-82
2023/12/07 04:39:52;;;;;;;4.75;3.75;;;;;;;;;;5044792;28;20896;-82
2023/12/07 04:42:19;;;;;;;4.03;3.33;;;;;;;;;;5044947;28;20196;-82
2023/12/07 04:44:47;;;;;;;2.33;1.88;;;;;;;;;;5044930;28;20719;-83
2023/12/07 04:47:14;;;;;;;4.75;2.50;;;;;;;;;;5045306;28;20299;-83
2023/12/07 04:49:41;;;;;;;3.15;2.78;;;;;;;;;;5044802;28;20238;-83
2023/12/07 04:52:09;;;;;;;3.25;3.05;;;;;;;;;;5045161;28;20200;-82
2023/12/07 04:54:36;;;;;;;4.93;4.38;;;;;;;;;;5055214;28;20220;-82
2023/12/07 04:57:03;;;;;;;5.95;3.67;;;;;;;;;;5047964;28;20283;-82
2023/12/07 04:59:30;;;;;;;4.50;3.28;;;;;;;;;;5049074;28;20224;-82
2023/12/07 05:01:58;;;;;;;5.13;3.90;;;;;;;;;;5048082;28;20275;-83
2023/12/07 05:04:25;;;;;;;5.68;4.07;;;;;;;;;;5048788;28;20200;-82
2023/12/07 05:06:52;;;;;;;5.38;4.60;;;;;;;;;;5048678;28;20681;-82
2023/12/07 05:09:20;;;;;;;1.92;1.83;;;0.40;99.90;;;;;;5048402;28;20283;-82
2023/12/07 05:11:47;;;;;;;4.47;3.53;;;0.40;99.90;;;;;;5048250;28;20202;-82
2023/12/07 05:14:14;;;;;;;5.70;5.07;;;;;;;;;;5048578;28;20284;-82
2023/12/07 05:16:41;;;;;;;7.00;4.75;;;0.20;99.90;;;;;;5048644;28;20208;-82
2023/12/07 05:19:09;;;;;;;6.53;4.82;;;-0.30;99.90;;;;;;5048357;28;20211;-82
2023/12/07 05:21:38;;;;;;;5.97;5.40;;;-0.20;99.90;;;;;;5048330;28;20193;-82
2023/12/07 05:24:05;;;;;;;6.70;5.45;;;;;;;;;;5047246;28;20207;-82
2023/12/07 05:26:32;;;;;;;5.88;3.90;;;0.30;99.90;;;;;;5048480;28;20230;-81
2023/12/07 05:28:59;;;;;;;4.90;4.40;;;0.30;99.90;;;;;;5048204;28;20274;-82
2023/12/07 05:31:27;;;;;;;8.75;4.25;;;;;;;;;;5048204;28;20640;-82
2023/12/07 05:33:54;;;;;;;8.30;4.63;;;;;;;;;;5047858;28;20195;-82
2023/12/07 05:36:22;;;;;;;5.07;4.43;;;0.20;99.90;;;;;;5048026;28;20214;-82
2023/12/07 05:38:49;;;;;;;4.65;3.20;;;;;;;;;;5046952;28;20226;-82
2023/12/07 05:41:17;;;;;;;6.82;3.28;;;0.20;99.90;;;;;;5047988;28;20292;-82
2023/12/07 05:43:44;;;;;;;3.15;2.85;;;;;;;;;;5048191;28;20608;-81
2023/12/07 05:46:11;;;;;;;3.35;3.05;;;0.20;99.90;;;;;;5047925;28;20658;-82
2023/12/07 05:48:38;;;;;;;3.80;3.28;;;;;;;;;;5048271;28;20299;-82
2023/12/07 05:51:06;;;;;;;4.20;3.72;;;;;;;;;;5047072;28;20230;-82
2023/12/07 05:53:34;;;;;;;4.65;4.25;;;0.20;99.90;;;;;;5054743;28;20211;-82
2023/12/07 05:56:01;;;;;;;14.27;5.90;;;;;;;;;;5048427;28;20214;-80
2023/12/07 05:58:28;;;;;;;8.70;6.63;;;;;;;;;;5047887;28;20212;-81
2023/12/07 06:00:55;;;;;;;3.50;2.90;;;;;;;;;;5047383;28;20573;-81
2023/12/07 06:03:22;;;;;;;8.40;3.63;;;-0.40;99.90;;;;;;5046613;28;20287;-81
2023/12/07 06:05:49;;;;;;;6.22;5.68;;;;;;;;;;5046618;28;20204;-81
2023/12/07 06:08:16;;;;;;;6.25;5.75;;;;;;;;;;5047888;28;20699;-82
2023/12/07 06:10:44;;;;;;;9.07;5.85;;;-0.60;99.90;;;;;;5047593;28;20206;-83
2023/12/07 06:13:11;;;;;;;11.05;5.03;;;-0.20;99.90;;;;;;5047712;28;20244;-82
2023/12/07 06:15:38;;;;;;;6.10;4.55;;;;;;;;;;5047941;28;20206;-83
2023/12/07 06:18:05;;;;;;;6.85;4.72;;;;;;;;;;5047618;28;20200;-80
2023/12/07 06:20:33;;;;;;;12.07;5.28;;;;;;;;;;5038704;28;20847;-80
2023/12/07 06:23:00;;;;;;;15.55;7.15;;;-0.20;99.90;;;;;;5047313;28;20216;-81
2023/12/07 06:25:27;;;;;;;17.67;5.35;;;-0.30;99.90;;;;;;5046935;28;20275;-80
2023/12/07 06:27:56;;;;;;;7.15;6.60;;;;;;;;;;5047222;28;20279;-80
2023/12/07 06:30:24;;;;;;;6.18;4.65;;;;;;;;;;5046380;28;20827;-80
2023/12/07 06:32:51;;;;;;;3.60;2.80;;;;;;;;;;5046151;28;20196;-80
2023/12/07 06:35:19;;;;;;;4.88;2.67;;;;;;;;;;5046827;28;20288;-80
2023/12/07 06:37:46;;;;;;;12.10;6.10;;;;;;;;;;5047239;28;20203;-80
2023/12/07 06:40:13;;;;;;;3.40;3.20;;;;;;;;;;5046638;28;20234;-80
2023/12/07 06:42:40;;;;;;;4.80;4.40;;;;;;;;;;5047049;28;20553;-80
2023/12/07 06:45:10;;;;;;;6.57;4.88;;;-0.50;99.90;;;;;;5039854;28;20203;-81
2023/12/07 06:47:38;;;;;;;5.38;4.88;;;;;;;;;;5046939;28;20215;-80
2023/12/07 06:50:08;;;;;;;4.30;3.42;;;-1.90;99.90;;;;;;5046619;28;20218;-81
2023/12/07 06:52:35;;;;;;;3.33;3.03;;;;;;;;;;5048676;28;20204;-80
2023/12/07 06:55:02;;;;;;;2.80;2.55;;;;;;;;;;5052938;28;20207;-80
2023/12/07 06:57:30;;;;;;;4.22;3.03;;;;;;;;;;5047172;28;20203;-80
2023/12/07 06:59:57;;;;;;;3.95;3.63;;;;;;;;;;5045663;28;20405;-78
2023/12/07 07:02:25;;;;;;;7.70;4.15;;;-0.30;99.90;;;;;;5046565;28;20204;-79
2023/12/07 07:04:52;;;;;;;5.78;4.63;;;;;;;;;;5046573;28;20287;-79
2023/12/07 07:07:19;;;;;;;3.92;3.45;;;;;;;;;;5046830;28;20303;-79
2023/12/07 07:09:47;;;;;;;4.40;4.03;;;;;;;;;;5046467;28;20983;-79
2023/12/07 07:12:13;;;;;;;4.78;4.25;;;-0.30;99.90;;;;;;5046510;28;20220;-78
2023/12/07 07:14:41;;;;;;;4.93;3.10;;;-0.10;99.90;;;;;;5045881;28;20279;-79
2023/12/07 07:17:08;;;;;;;6.03;4.65;;;;;;;;;;5043182;28;20211;-79
2023/12/07 07:19:36;;;;;;;3.88;3.58;;;;;;;;;;5045857;28;20230;-79
2023/12/07 07:22:04;;;;;;;8.10;5.70;;;;;;;;;;5046392;28;20204;-79
2023/12/07 07:24:31;;;;;;;7.57;5.53;;;;;;;;;;5041795;28;20294;-79
2023/12/07 07:26:58;;;;;;;3.25;2.95;;;;;;;;;;5043504;28;20212;-88
2023/12/07 07:29:25;;;;;;;9.02;4.43;;;;;;;;;;5035180;28;20308;-76
2023/12/07 07:31:53;;;;;;;3.80;3.25;;;;;;;;;;5046525;28;20208;-79
2023/12/07 07:34:20;;;;;;;4.55;3.80;;;;;;;;;;5046248;28;20934;-78
2023/12/07 07:36:49;;;;;;;9.40;7.03;;;-0.30;99.90;;;;;;5046198;28;20211;-79
2023/12/07 07:39:17;;;;;;;7.63;4.88;;;;;;;;;;5045470;28;20220;-79
2023/12/07 07:41:44;;;;;;;4.15;3.80;;;;;;;;;;5045837;28;20207;-79
2023/12/07 07:44:10;;;;;;;7.32;6.35;;;-0.20;99.90;;;;;;5046145;28;20204;-79
2023/12/07 07:46:38;;;;;;;7.32;5.30;;;;;;;;;;5046353;28;20216;-83
2023/12/07 07:49:05;;;;;;;7.43;6.00;;;;;;;;;;5045982;28;20283;-81
2023/12/07 07:51:32;;;;;;;11.38;5.47;;;;;;;;;;5046266;28;20290;-83
2023/12/07 07:54:00;;;;;;;5.65;5.15;;;-0.20;99.90;;;;;;5052872;28;20217;-86
2023/12/07 07:56:27;;;;;;;6.57;4.65;;;;;;;;;;5045723;28;20204;-84
2023/12/07 07:58:55;;;;;;;8.18;3.50;;;;;;;;;;5045542;28;20216;-87
2023/12/07 08:01:21;;;;;;;6.68;4.28;;;-0.40;99.90;;;;;;5046255;28;20230;-82
2023/12/07 08:03:49;;;;;;;6.15;4.65;;;;;;;;;;5044873;28;20214;-85
2023/12/07 08:06:16;;;;;;;7.63;4.97;;;;;;;;;;5045906;28;20280;-85
2023/12/07 08:08:43;;;;;;;6.18;4.88;;;;;;;;;;5045314;28;20208;-78
2023/12/07 08:11:11;;;;;;;5.95;5.03;;;;;;;;;;5045431;28;20653;-82
2023/12/07 08:13:40;;;;;;;7.03;5.35;;;0.30;99.90;;;;;;5045255;28;20485;-83
2023/12/07 08:16:09;;;;;;;5.25;4.75;;;;;;;;;;5046126;28;20298;-85
2023/12/07 08:18:37;;;;;;;10.00;7.40;;;;;;;;;;5042069;28;20559;-86
2023/12/07 08:21:07;;;;;;;4.70;4.03;;;;;;;;;;5045457;28;20224;-85
2023/12/07 08:23:34;;;;;;;4.68;4.15;;;;;;;;;;5045400;28;20200;-83
2023/12/07 08:26:01;;;;;;;4.68;4.32;;;;;;;;;;5045662;28;20293;-84
2023/12/07 08:28:30;;;;;;;6.95;5.30;;;;;;;;;;5048190;28;20212;-83
2023/12/07 08:30:57;;;;;;;4.90;4.30;;;0.70;99.90;;;;;;5049193;28;20192;-82
2023/12/07 08:33:25;;;;;;;3.95;3.38;;;;;;;;;;5049858;28;20295;-82
2023/12/07 08:35:54;;;;;;;4.30;3.90;;;1.00;99.90;;;;;;5048987;28;20776;-80
2023/12/07 08:38:22;;;;;;;8.35;3.45;;;;;;;;;;5049396;28;20693;-80
2023/12/07 08:40:49;;;;;;;5.20;4.80;;;;;;;;;;5048536;28;20231;-79
2023/12/07 08:43:17;;;;;;;7.05;5.00;;;;;;;;;;5049497;28;20201;-79
2023/12/07 08:45:45;;;;;;;7.65;3.88;;;;;;;;;;5049070;28;20214;-77
2023/12/07 08:48:12;;;;;;;7.70;4.63;;;;;;;;;;5048926;28;20200;-80
2023/12/07 08:50:40;;;;;;;5.25;4.45;;;;;;;;;;5049107;28;20568;-79
2023/12/07 08:53:07;;;;;;;5.30;3.17;;;;;;;;;;5052448;28;20687;-78
2023/12/07 08:55:34;;;;;;;5.38;3.92;;;;;;;;;;5053918;28;20204;-76
2023/12/07 08:58:03;;;;;;;6.18;3.88;;;;;;;;;;5046707;28;20683;-77
2023/12/07 09:00:31;;;;;;;4.55;2.80;;;;;;;;;;5047705;28;20231;-76
2023/12/07 09:02:59;;;;;;;17.27;5.63;;;1.60;99.90;;;;;;5047674;28;20291;-77
2023/12/07 09:05:27;;;;;;;5.63;4.15;;;1.60;99.90;;;;;;5048816;28;20195;-77
2023/12/07 09:07:54;;;;;;;10.57;5.40;;;1.90;99.90;;;;;;5048665;28;20200;-76
2023/12/07 09:10:21;;;;;;;6.32;4.15;;;2.00;99.90;;;;;;5047994;28;20288;-75
2023/12/07 09:12:48;;;;;;;4.43;4.03;;;2.00;99.90;;;;;;5048645;28;20237;-76
2023/12/07 09:15:15;;;;;;;5.03;3.60;;;1.80;99.90;;;;;;5047320;28;20203;-76
2023/12/07 09:17:42;;;;;;;3.65;3.38;;;2.10;99.90;;;;;;5048421;28;20686;-77
2023/12/07 09:20:12;;;;;;;5.55;4.13;;;2.20;99.90;;;;;;5044239;28;20216;-75
2023/12/07 09:22:39;;;;;;;4.63;3.90;;;;;;;;;;5045327;28;20240;-76
2023/12/07 09:25:07;;;;;;;6.00;4.10;;;4.10;99.90;;;;;;5048524;28;20196;-76
2023/12/07 09:27:34;;;;;;;8.13;4.35;;;2.10;99.90;;;;;;5048433;28;20227;-76
2023/12/07 09:30:02;;;;;;;4.03;2.97;;;2.30;99.90;;;;;;5047457;28;20645;-76
2023/12/07 09:32:29;;;;;;;5.60;3.58;;;2.50;99.90;;;;;;5048738;28;20204;-76
2023/12/07 09:34:56;;;;;;;2.67;2.53;;;;;;;;;;5048377;28;20200;-74
2023/12/07 09:37:24;;;;;;;4.72;3.53;;;2.40;99.90;;;;;;5048687;28;20332;-75
2023/12/07 09:39:51;;;;;;;3.17;2.88;;;;;;;;;;5047782;28;20196;-76
2023/12/07 09:42:18;;;;;;;3.40;3.10;;;;;;;;;;5047915;28;20205;-75
2023/12/07 09:44:46;;;;;;;6.60;3.88;;;;;;;;;;5047822;28;20573;-78
2023/12/07 09:47:13;;;;;;;5.22;4.72;;;2.60;99.90;;;;;;5048138;28;20303;-78
2023/12/07 09:49:41;;;;;;;5.85;4.88;;;2.50;99.90;;;;;;5047656;28;20208;-78
2023/12/07 09:52:09;;;;;;;6.15;4.82;;;2.20;99.90;;;;;;5048387;28;20208;-78
2023/12/07 09:54:41;;;;;;;6.28;5.20;;;;;;;;;;5056324;28;20192;-78
2023/12/07 09:57:09;;;;;;;5.65;3.00;;;2.60;99.90;;;;;;5047602;28;20308;-78
2023/12/07 09:59:36;;;;;;;3.97;3.50;;;2.90;99.90;;;;;;5047416;28;20701;-77
2023/12/07 10:02:03;;;;;;;7.03;3.63;;;2.90;99.90;;;;;;5047359;28;20256;-77
2023/12/07 10:04:30;;;;;;;5.95;2.75;;;2.10;99.90;;;;;;5047532;28;20627;-77
2023/12/07 10:06:58;;;;;;;6.75;2.83;;;;;;;;;;5047730;28;20279;-78
2023/12/07 10:09:25;;;;;;;3.28;2.97;;;;;;;;;;5047457;28;20201;-78
2023/12/07 10:12:03;;;;;;;5.68;4.55;;;2.50;99.90;;;;;;5047942;28;20207;-77
2023/12/07 10:14:30;;;;;;;8.85;5.07;;;2.40;99.90;;;;;;5042149;28;20200;-76
2023/12/07 10:16:57;;;;;;;8.40;3.95;;;2.90;99.90;;;;;;5047417;28;20196;-76
2023/12/07 10:19:25;;;;;;;5.65;4.97;;;2.70;99.90;;;;;;5047137;28;20205;-76
2023/12/07 10:21:52;;;;;;;4.85;4.22;;;2.90;99.90;;;;;;5046927;28;20307;-76
2023/12/07 10:24:20;;;;;;;6.50;3.75;;;2.50;99.90;;;;;;5047368;28;20830;-77
2023/12/07 10:26:48;;;;;;;4.32;3.80;;;2.60;99.90;;;;;;5047419;28;20204;-77
2023/12/07 10:29:18;;;;;;;6.80;4.18;;;2.90;99.90;;;;;;5046842;28;20201;-77
2023/12/07 10:31:46;;;;;;;5.28;3.55;;;;;;;;;;5044007;28;20593;-77
2023/12/07 10:34:14;;;;;;;3.45;3.25;;;3.10;99.90;;;;;;5046760;28;20266;-77
2023/12/07 10:36:41;;;;;;;7.25;4.95;;;;;;;;;;5046453;28;20208;-77
2023/12/07 10:39:08;;;;;;;6.90;4.57;;;;;;;;;;5046917;28;20308;-77
2023/12/07 10:41:38;;;;;;;7.97;4.45;;;;;;;;;;5046963;28;20728;-77
2023/12/07 10:44:06;;;;;;;4.32;3.90;;;;;;;;;;5046599;28;20211;-76
2023/12/07 10:46:34;;;;;;;7.60;4.45;;;3.10;99.90;;;;;;5046654;28;20538;-76
2023/12/07 10:49:05;;;;;;;6.38;3.90;;;2.20;98.10;;;;;;5045772;28;20209;-75
2023/12/07 10:51:35;;;;;;;2.92;2.45;;;3.10;98.50;;;;;;5046242;28;20197;-75
2023/12/07 10:54:05;;;;;;;3.85;3.45;;;3.10;98.50;;;;;;5054899;28;20930;-76
2023/12/07 10:56:41;;;;;;;2.75;2.55;;;3.20;98.00;;;;;;5047002;28;20212;-75
2023/12/07 10:59:10;;;;;;;2.85;2.65;;;3.30;97.50;;;;;;5046028;28;20251;-76
2023/12/07 11:01:39;;;;;;;4.03;3.10;;;4.00;98.40;;;;;;5046615;28;20282;-76
2023/12/07 11:04:07;;;;;;;2.38;2.17;;;3.20;97.30;;;;;;5045587;28;20199;-76
2023/12/07 11:06:34;;;;;;;3.28;2.90;;;3.10;96.50;;;;;;5046873;28;20254;-76
2023/12/07 11:09:03;;;;;;;7.75;2.25;;;;;;;;;;5046119;28;20209;-76
2023/12/07 11:11:37;;;;;;;2.95;2.75;;;3.30;97.60;;;;;;5046778;28;20206;-76
2023/12/07 11:14:07;;;;;;;3.45;3.15;;;3.40;97.90;;;;;;5045715;28;20719;-75
2023/12/07 11:16:36;;;;;;;3.50;3.08;;;;;;;;;;5046723;28;20213;-79
2023/12/07 11:19:05;;;;;;;5.82;3.78;;;3.30;98.20;;;;;;5045872;28;20296;-76
2023/12/07 11:21:32;;;;;;;7.65;3.38;;;3.30;97.00;;;;;;5046348;28;20221;-74
2023/12/07 11:24:01;;;;;;;2.88;2.60;;;3.40;97.80;;;;;;5045911;28;20205;-75
2023/12/07 11:26:28;;;;;;;3.58;2.63;;;;;;;;;;5045782;28;20197;-75
2023/12/07 11:28:56;;;;;;;4.20;2.83;;;3.50;98.20;;;;;;5046051;28;20293;-79
2023/12/07 11:31:23;;;;;;;2.88;2.20;;;;;;;;;;5045957;28;20217;-78
2023/12/07 11:33:50;;;;;;;3.33;3.03;;;;;;;;;;5046052;28;20400;-79
2023/12/07 11:36:18;;;;;;;2.88;2.65;;;3.50;97.30;;;;;;5046239;28;20206;-79
2023/12/07 11:39:25;;;;;;;2.85;2.67;;;3.40;94.90;;;;;;5046148;28;20216;-78
2023/12/07 11:41:55;;;;;;;3.17;2.42;;;3.50;98.60;;;;;;5018753;28;20284;-79
2023/12/07 11:44:25;;;;;;;2.10;1.90;;;3.50;97.60;;;;;;5045796;28;20303;-80
2023/12/07 11:46:51;;;;;;;4.10;3.03;;;;;;;;;;5045595;28;20205;-79
2023/12/07 11:49:19;;;;;;;1.65;1.45;;;3.50;96.60;;;;;;5045531;28;20621;-79
2023/12/07 11:51:48;;;;;;;2.08;1.88;;;3.60;96.90;;;;;;5045891;28;20205;-79
2023/12/07 11:54:17;;;;;;;3.97;2.05;;;3.50;96.60;;;;;;5054418;28;20277;-79
2023/12/07 11:56:44;;;;;;;2.45;1.70;;;;;;;;;;5045844;28;20714;-80
2023/12/07 11:59:11;;;;;;;3.65;2.00;;;;;;;;;;5045478;28;20573;-79
2023/12/07 12:01:39;;;;;;;2.28;2.15;;;;;;;;;;5045722;28;20227;-79
2023/12/07 12:04:08;;;;;;;2.13;1.98;;;3.70;96.80;;;;;;5051361;28;20212;-79
2023/12/07 12:06:35;;;;;;;1.75;1.60;;;;;;;;;;5052650;28;20259;-79
2023/12/07 12:09:04;;;;;;;19.58;2.28;;;;;;;;;;5052147;28;20212;-80
2023/12/07 12:11:31;;;;;;;1.50;1.40;;;;;;;;;;5049412;28;20204;-79
2023/12/07 12:13:58;;;;;;;2.15;1.95;;;;;;;;;;5052040;28;20194;-80
2023/12/07 12:16:25;;;;;;;1.30;1.23;;;;;;;;;;5051715;28;20684;-79
2023/12/07 12:18:53;;;;;;;2.03;1.90;;;;;;;;;;5051745;28;20285;-80
2023/12/07 12:21:20;;;;;;;2.42;1.70;;;;;;;;;;5052494;28;20234;-79
2023/12/07 12:23:49;;;;;;;1.65;1.55;;;3.70;97.00;;;;;;5052363;28;20294;-79
2023/12/07 12:26:18;;;;;;;4.50;2.40;;;3.20;97.90;;;;;;5052330;28;20647;-80
2023/12/07 12:28:46;;;;;;;1.50;1.40;;;;;;;;;;5049070;28;20286;-80
2023/12/07 12:31:13;;;;;;;1.83;1.73;;;3.90;95.80;;;;;;5051085;28;20293;-80
2023/12/07 12:33:40;;;;;;;3.17;2.65;;;;;;;;;;5052584;28;20212;-80
2023/12/07 12:36:10;;;;;;;3.90;1.73;;;3.80;96.90;;;;;;5052429;28;20877;-79
2023/12/07 12:38:39;;;;;;;2.65;1.63;;;3.60;97.60;;;;;;5052431;28;20635;-80
2023/12/07 12:41:06;;;;;;;2.38;2.17;;;;;;;;;;5051968;28;20326;-80
2023/12/07 12:43:34;;;;;;;1.80;1.70;;;3.80;97.80;;;;;;5051568;28;20200;-74
2023/12/07 12:46:02;;;;;;;3.38;1.98;;;;;;;;;;5052130;28;20296;-73
2023/12/07 12:48:29;;;;;;;2.78;2.53;;;;;;;;;;5052284;28;20294;-72
2023/12/07 12:50:56;;;;;;;3.65;2.58;;;;;;;;;;5051745;28;20215;-73
2023/12/07 12:53:25;;;;;;;2.95;2.65;;;;;;;;;;5057429;28;20208;-73
2023/12/07 12:55:52;;;;;;;2.60;2.40;;;;;;;;;;5054125;28;20305;-72
2023/12/07 12:58:20;;;;;;;2.97;2.78;;;;;;;;;;5052038;28;20719;-72
2023/12/07 13:00:48;;;;;;;2.67;2.50;;;4.00;98.90;;;;;;5051207;28;20203;-75
2023/12/07 13:03:15;;;;;;;2.95;2.67;;;;;;;;;;5044177;28;20289;-76
2023/12/07 13:05:42;;;;;;;4.07;2.80;;;;;;;;;;5051188;28;20294;-76
2023/12/07 13:08:10;;;;;;;4.05;3.60;;;;;;;;;;5048838;28;20669;-76
2023/12/07 13:10:37;;;;;;;2.50;2.30;;;;;;;;;;5051706;28;20233;-76
2023/12/07 13:13:06;;;;;;;5.22;3.10;;;;;;;;;;5051674;28;20209;-76
2023/12/07 13:15:34;;;;;;;5.50;3.28;;;;;;;;;;5048030;28;20289;-75
2023/12/07 13:18:02;;;;;;;2.65;2.45;;;4.00;98.50;;;;;;5048506;28;20657;-75
2023/12/07 13:20:29;;;;;;;3.65;2.63;;;;;;;;;;5048375;28;20545;-75
2023/12/07 13:22:56;;;;;;;4.10;2.88;;;;;;;;;;5048820;28;20230;-75
2023/12/07 13:25:23;;;;;;;2.75;2.55;;;;;;;;;;5047777;28;20325;-75
2023/12/07 13:27:50;;;;;;;9.02;2.97;;;;;;;;;;5048790;28;20289;-75
2023/12/07 13:30:17;;;;;;;1.98;1.88;;;3.80;98.50;;;;;;5048298;28;20208;-75
2023/12/07 13:32:44;;;;;;;2.58;1.80;;;;;;;;;;5044950;28;20297;-75
2023/12/07 13:35:13;;;;;;;5.10;2.92;;;3.80;98.50;;;;;;5044007;28;20202;-75
2023/12/07 13:37:40;;;;;;;2.28;2.00;;;;;;;;;;5048366;28;20207;-75
2023/12/07 13:40:10;;;;;;;2.38;2.17;;;3.80;98.50;;;;;;5048055;28;20308;-75
2023/12/07 13:42:37;;;;;;;5.57;3.15;;;3.90;97.00;;;;;;5048466;28;20231;-75
2023/12/07 13:45:06;;;;;;;3.63;2.90;;;3.20;99.90;;;;;;5048050;28;20202;-76
2023/12/07 13:47:36;;;;;;;3.15;2.78;;;;;;;;;;5048110;28;20434;-76
2023/12/07 13:50:03;;;;;;;4.13;3.72;;;;;;;;;;5046445;28;20291;-76
2023/12/07 13:52:32;;;;;;;5.15;2.92;;;4.10;99.90;;;;;;5048278;28;20199;-75
2023/12/07 13:54:59;;;;;;;2.72;2.53;;;;;;;;;;5054643;28;20298;-76
2023/12/07 13:57:26;;;;;;;2.58;1.60;;;;;;;;;;5048135;28;20211;-76
2023/12/07 13:59:53;;;;;;;2.15;1.70;;;;;;;;;;5047506;28;20286;-76
2023/12/07 14:02:20;;;;;;;4.35;3.75;;;;;;;;;;5047600;28;20225;-75
2023/12/07 14:04:49;;;;;;;4.18;2.28;;;;;;;;;;5047492;28;20204;-75